Time;durP1;ratioP1;P1;durP2;ratioP2;P2;SDS_P1;SDS_P2;PMS_P1;PMS_P2;Temp;Humidity;BMP_temperature;BMP_pressure;BME280_temperature;BME280_humidity;BME280_pressure;Samples;Min_cycle;Max_cycle;Signal;HPM_P1;HPM_P2
2022/12/16 00:01:22;;;;;;;;;;;19.00;49.10;;;;;;5134492;27;19912;-66
2022/12/16 00:03:49;;;;;;;;;;;19.20;49.20;;;;;;5097242;28;19914;-66
2022/12/16 00:06:16;;;;;;;;;;;19.20;48.30;;;;;;5095773;28;19973;-66
2022/12/16 00:08:42;;;;;;;;;;;19.30;49.00;;;;;;5098791;27;19908;-66
2022/12/16 00:11:09;;;;;;;;;;;19.60;49.10;;;;;;5134229;27;20275;-65
2022/12/16 00:13:36;;;;;;;;;;;19.60;46.20;;;;;;5134008;27;19919;-66
2022/12/16 00:16:10;;;;;;;;;;;19.30;46.50;;;;;;5102984;28;19990;-67
2022/12/16 00:18:36;;;;;;;;;;;19.20;46.90;;;;;;5122237;27;19908;-66
2022/12/16 00:21:03;;;;;;;;;;;19.30;48.30;;;;;;5133598;27;20437;-67
2022/12/16 00:23:30;;;;;;;;;;;19.30;48.50;;;;;;5103075;28;19918;-66
2022/12/16 00:25:56;;;;;;;;;;;19.30;47.90;;;;;;5128362;27;19908;-66
2022/12/16 00:28:23;;;;;;;;;;;19.20;49.00;;;;;;5124428;27;19915;-67
2022/12/16 00:30:50;;;;;;;;;;;19.10;48.40;;;;;;5133621;27;20403;-67
2022/12/16 00:33:17;;;;;;;;;;;19.00;47.90;;;;;;5106292;28;19914;-66
2022/12/16 00:35:44;;;;;;;;;;;18.80;49.80;;;;;;5117296;27;19908;-66
2022/12/16 00:38:10;;;;;;;;;;;18.90;49.90;;;;;;5131270;27;19915;-66
2022/12/16 00:40:37;;;;;;;;;;;19.10;49.50;;;;;;5134231;27;19915;-66
2022/12/16 00:43:03;;;;;;;;;;;19.20;49.60;;;;;;5133724;27;19934;-66
2022/12/16 00:45:30;;;;;;;;;;;19.20;48.20;;;;;;5133413;27;19908;-66
2022/12/16 00:47:57;;;;;;;;;;;19.00;49.00;;;;;;5119861;27;19947;-66
2022/12/16 00:50:24;;;;;;;;;;;19.00;48.90;;;;;;5133133;27;19966;-67
2022/12/16 00:52:50;;;;;;;;;;;18.90;49.50;;;;;;5133595;27;19995;-66
2022/12/16 00:55:17;;;;;;;;;;;19.00;49.90;;;;;;5133338;27;19908;-66
2022/12/16 00:57:44;;;;;;;;;;;18.90;49.90;;;;;;5126566;27;19946;-67
2022/12/16 01:00:11;;;;;;;;;;;18.90;50.50;;;;;;5100369;27;19919;-67
2022/12/16 01:02:41;;;;;;;;;;;18.80;49.70;;;;;;5133468;27;19915;-66
2022/12/16 01:05:08;;;;;;;;;;;18.30;51.20;;;;;;5098139;27;20187;-66
2022/12/16 01:07:35;;;;;;;;;;;18.20;52.10;;;;;;5098940;28;19916;-66
2022/12/16 01:10:01;;;;;;;;;;;18.30;52.80;;;;;;5126921;27;19911;-67
2022/12/16 01:12:28;;;;;;;;;;;18.30;53.60;;;;;;5116681;27;19908;-66
2022/12/16 01:14:54;;;;;;;;;;;18.20;52.00;;;;;;5124826;27;19912;-65
2022/12/16 01:17:21;;;;;;;;;;;18.20;52.70;;;;;;5120411;27;19915;-66
2022/12/16 01:19:48;;;;;;;;;;;18.10;51.10;;;;;;5130069;27;19911;-67
2022/12/16 01:22:14;;;;;;;;;;;18.20;52.30;;;;;;5125600;27;19961;-66
2022/12/16 01:24:41;;;;;;;;;;;18.10;53.00;;;;;;5133192;27;20006;-66
2022/12/16 01:27:08;;;;;;;;;;;18.00;51.70;;;;;;5121813;27;19908;-66
2022/12/16 01:29:37;;;;;;;;;;;18.20;53.00;;;;;;5119655;28;19907;-66
2022/12/16 01:32:05;;;;;;;;;;;18.30;51.70;;;;;;5101794;28;19916;-66
2022/12/16 01:34:32;;;;;;;;;;;18.30;51.00;;;;;;5130970;27;19912;-66
2022/12/16 01:36:58;;;;;;;;;;;18.30;52.10;;;;;;5094260;28;19943;-67
2022/12/16 01:39:26;;;;;;;;;;;18.40;50.70;;;;;;5126795;27;19914;-67
2022/12/16 01:41:52;;;;;;;;;;;18.40;51.10;;;;;;5118296;28;19911;-66
2022/12/16 01:44:20;;;;;;;;;;;18.40;51.50;;;;;;5132936;28;19964;-67
2022/12/16 01:46:50;;;;;;;;;;;18.20;51.80;;;;;;5126379;28;19969;-66
2022/12/16 01:49:24;;;;;;;;;;;18.30;52.00;;;;;;5103586;28;19908;-66
2022/12/16 01:51:51;;;;;;;;;;;18.30;52.40;;;;;;5094432;28;20010;-66
2022/12/16 01:54:22;;;;;;;;;;;18.20;51.50;;;;;;5122776;28;19907;-67
2022/12/16 01:56:53;;;;;;;;;;;18.30;51.90;;;;;;5097087;28;19939;-66
2022/12/16 01:59:20;;;;;;;;;;;18.40;49.90;;;;;;5125994;27;19933;-67
2022/12/16 02:01:46;;;;;;;;;;;18.50;51.60;;;;;;5097593;27;19931;-66
2022/12/16 02:04:13;;;;;;;;;;;18.50;50.80;;;;;;5126996;27;20430;-67
2022/12/16 02:06:39;;;;;;;;;;;18.40;53.10;;;;;;5126764;27;19915;-66
2022/12/16 02:09:07;;;;;;;;;;;18.40;52.00;;;;;;5114596;27;19999;-66
2022/12/16 02:11:33;;;;;;;;;;;18.40;52.20;;;;;;5105724;28;19908;-66
2022/12/16 02:14:18;;;;;;;;;;;18.40;53.70;;;;;;5134657;27;19908;-66
2022/12/16 02:16:57;;;;;;;;;;;18.40;53.00;;;;;;5126301;27;19920;-66
2022/12/16 02:19:26;;;;;;;;;;;18.60;52.50;;;;;;5109655;28;19915;-66
2022/12/16 02:22:11;;;;;;;;;;;18.50;52.50;;;;;;5113513;28;19960;-67
2022/12/16 02:24:38;;;;;;;;;;;18.60;52.80;;;;;;5107130;28;19995;-66
2022/12/16 02:27:16;;;;;;;;;;;18.70;54.50;;;;;;5112116;28;20002;-67
2022/12/16 02:29:43;;;;;;;;;;;18.90;50.70;;;;;;5111263;28;19912;-66
2022/12/16 02:32:12;;;;;;;;;;;19.00;52.70;;;;;;5115360;28;19908;-69
2022/12/16 02:34:42;;;;;;;;;;;19.20;52.00;;;;;;5108512;28;19991;-66
2022/12/16 02:37:14;;;;;;;;;;;19.20;51.10;;;;;;5115642;27;19914;-68
2022/12/16 02:40:00;;;;;;;;;;;19.00;52.00;;;;;;5099469;27;19982;-68
2022/12/16 02:42:56;;;;;;;;;;;19.00;51.80;;;;;;5124411;27;19916;-67
2022/12/16 02:45:24;;;;;;;;;;;19.10;51.80;;;;;;5091470;27;19911;-68
2022/12/16 02:47:51;;;;;;;;;;;19.20;51.50;;;;;;5084313;28;19919;-67
2022/12/16 02:50:19;;;;;;;;;;;19.20;53.00;;;;;;5134257;27;20806;-67
2022/12/16 02:52:46;;;;;;;;;;;19.10;49.90;;;;;;5130022;27;19913;-69
2022/12/16 02:55:13;;;;;;;;;;;19.10;50.80;;;;;;5094747;28;19949;-67
2022/12/16 02:58:18;;;;;;;;;;;19.20;52.80;;;;;;5106051;28;19919;-67
2022/12/16 03:00:50;;;;;;;;;;;19.30;51.30;;;;;;5026493;28;19913;-68
2022/12/16 03:03:19;;;;;;;;;;;19.10;50.80;;;;;;5026683;28;19929;-65
2022/12/16 03:05:49;;;;;;;;;;;19.00;52.10;;;;;;5066999;28;20234;-67
2022/12/16 03:08:19;;;;;;;;;;;19.00;51.60;;;;;;5086786;28;19908;-67
2022/12/16 03:10:51;;;;;;;;;;;18.90;52.20;;;;;;5078417;28;20003;-66
2022/12/16 03:13:18;;;;;;;;;;;18.90;53.50;;;;;;5071980;28;19915;-67
2022/12/16 03:15:45;;;;;;;;;;;19.20;54.60;;;;;;5113481;28;19962;-68
2022/12/16 03:18:11;;;;;;;;;;;19.00;52.90;;;;;;5093682;28;19912;-69
2022/12/16 03:20:54;;;;;;;;;;;19.00;53.30;;;;;;5095908;28;20056;-68
2022/12/16 03:23:25;;;;;;;;;;;18.90;53.30;;;;;;5092992;28;19916;-68
2022/12/16 03:25:53;;;;;;;;;;;19.00;53.50;;;;;;5093061;28;19912;-68
2022/12/16 03:28:37;;;;;;;;;;;19.00;54.00;;;;;;5088515;28;19909;-70
2022/12/16 03:31:07;;;;;;;;;;;18.90;54.50;;;;;;5091639;28;19915;-68
2022/12/16 03:33:53;;;;;;;;;;;18.80;53.70;;;;;;5093738;28;19915;-68
2022/12/16 03:36:21;;;;;;;;;;;18.90;54.20;;;;;;5106402;27;19920;-69
2022/12/16 03:38:47;;;;;;;;;;;19.00;53.90;;;;;;5113476;28;19994;-68
2022/12/16 03:41:14;;;;;;;;;;;19.20;53.90;;;;;;5091595;28;20003;-68
2022/12/16 03:43:41;;;;;;;;;;;19.30;54.40;;;;;;5093052;28;19965;-68
2022/12/16 03:46:07;;;;;;;;;;;19.20;55.10;;;;;;5107173;28;19907;-68
2022/12/16 03:48:34;;;;;;;;;;;19.20;54.80;;;;;;5110331;28;19976;-68
2022/12/16 03:51:01;;;;;;;;;;;19.10;54.70;;;;;;5113451;28;19907;-68
2022/12/16 03:53:28;;;;;;;;;;;19.20;54.00;;;;;;5092399;28;19912;-67
2022/12/16 03:55:55;;;;;;;;;;;19.20;54.90;;;;;;5110047;28;19912;-68
2022/12/16 03:58:21;;;;;;;;;;;19.30;53.50;;;;;;5110296;28;19920;-67
2022/12/16 04:00:48;;;;;;;;;;;19.20;51.90;;;;;;5090787;28;19974;-68
2022/12/16 04:03:15;;;;;;;;;;;19.30;52.60;;;;;;5108038;28;20255;-68
2022/12/16 04:05:41;;;;;;;;;;;19.40;52.90;;;;;;5109585;28;19922;-67
2022/12/16 04:08:08;;;;;;;;;;;19.60;52.90;;;;;;5103777;28;19912;-67
2022/12/16 04:24:25;;;;;;;;;;;19.30;53.90;;;;;;5074196;28;19927;-68
2022/12/16 04:30:17;;;;;;;;;;;19.30;51.80;;;;;;5079645;28;19954;-68
2022/12/16 04:32:22;;;;;;;;;;;19.40;53.00;;;;;;5081098;28;19916;-68
2022/12/16 04:34:50;;;;;;;;;;;19.50;51.70;;;;;;5070921;28;19923;-67
